Time;durP1;ratioP1;P1;durP2;ratioP2;P2;SDS_P1;SDS_P2;PMS_P1;PMS_P2;Temp;Humidity;BMP_temperature;BMP_pressure;BME280_temperature;BME280_humidity;BME280_pressure;Samples;Min_cycle;Max_cycle;Signal;HPM_P1;HPM_P2
2022/10/31 20:44:29;;;;;;;19.98;12.95;;;16.50;69.00;;;;;;6250103;22;20019;-77
2022/10/31 20:46:58;;;;;;;23.58;13.70;;;16.50;68.90;;;;;;6279904;22;20003;-79
2022/10/31 20:49:25;;;;;;;18.00;12.40;;;16.50;68.80;;;;;;6280738;22;20001;-83
2022/10/31 20:51:53;;;;;;;24.35;13.30;;;16.50;68.80;;;;;;6280134;22;20000;-77
2022/10/31 20:54:19;;;;;;;19.13;12.90;;;16.50;68.90;;;;;;6279343;22;20097;-80
2022/10/31 20:56:45;;;;;;;17.17;12.50;;;16.50;68.90;;;;;;6281238;22;20031;-79
2022/10/31 20:59:13;;;;;;;20.67;13.52;;;16.50;68.70;;;;;;6280230;22;20006;-80
2022/10/31 21:01:40;;;;;;;18.30;11.18;;;16.50;68.70;;;;;;6281345;22;19999;-78
2022/10/31 21:04:13;;;;;;;13.57;10.40;;;16.50;68.60;;;;;;6281763;22;20023;-90
2022/10/31 21:06:41;;;;;;;19.45;12.60;;;16.50;68.60;;;;;;6308589;22;20007;-83
2022/10/31 21:09:16;;;;;;;16.17;11.38;;;16.50;68.60;;;;;;6281634;22;20303;-80
2022/10/31 21:11:45;;;;;;;17.17;12.13;;;16.50;68.70;;;;;;6257166;22;19999;-89
2022/10/31 21:14:14;;;;;;;20.33;12.38;;;16.50;68.60;;;;;;6280184;22;19995;-83
2022/10/31 21:16:41;;;;;;;16.45;11.15;;;16.50;68.60;;;;;;6280572;22;20026;-80
2022/10/31 21:19:07;;;;;;;13.60;9.60;;;16.50;68.60;;;;;;6280506;22;20037;-81
2022/10/31 21:21:41;;;;;;;15.40;10.95;;;16.50;68.70;;;;;;6281055;22;19999;-74
2022/10/31 21:24:15;;;;;;;15.80;11.45;;;16.50;68.70;;;;;;6308222;22;20125;-80
2022/10/31 21:26:46;;;;;;;18.25;11.27;;;16.60;68.70;;;;;;6281190;22;20053;-84
2022/10/31 21:29:13;;;;;;;14.73;10.27;;;16.60;68.60;;;;;;6280319;22;20403;-86
2022/10/31 21:31:47;;;;;;;17.35;11.52;;;16.60;68.60;;;;;;6279891;22;19999;-81
2022/10/31 21:34:14;;;;;;;93.90;60.90;;;16.60;68.60;;;;;;6280814;22;20352;-72
2022/10/31 21:36:47;;;;;;;218.70;134.10;;;16.60;68.50;;;;;;6280450;22;20000;-72
2022/10/31 21:39:13;;;;;;;96.93;58.08;;;16.60;68.60;;;;;;6279649;22;20003;-74
2022/10/31 21:41:41;;;;;;;98.55;61.17;;;16.60;68.70;;;;;;6306682;22;19995;-72
2022/10/31 21:44:09;;;;;;;92.22;54.20;;;16.60;68.50;;;;;;6279529;22;20026;-72
2022/10/31 21:46:37;;;;;;;62.92;37.70;;;16.60;68.50;;;;;;6307571;22;20070;-70
2022/10/31 21:49:06;;;;;;;87.70;54.55;;;16.60;68.40;;;;;;6307876;22;20015;-74
2022/10/31 21:51:39;;;;;;;92.57;58.17;;;16.60;68.40;;;;;;6307394;22;19992;-72
2022/10/31 21:56:52;;;;;;;54.22;36.28;;;16.60;68.40;;;;;;6307444;22;20007;-70
2022/10/31 21:59:24;;;;;;;75.88;48.97;;;16.60;68.40;;;;;;6280051;22;20006;-71
2022/10/31 22:02:01;;;;;;;48.47;31.83;;;16.70;68.60;;;;;;6279968;22;20003;-70
2022/10/31 22:04:28;;;;;;;30.02;18.25;;;16.70;68.40;;;;;;6278736;22;19999;-71
2022/10/31 22:06:54;;;;;;;24.92;18.58;;;16.70;68.20;;;;;;6307007;22;20422;-71
2022/10/31 22:09:23;;;;;;;26.65;17.10;;;16.70;68.10;;;;;;6307636;22;19991;-67
2022/10/31 22:11:51;;;;;;;21.88;15.43;;;16.70;68.10;;;;;;6279976;22;20061;-71
2022/10/31 22:14:20;;;;;;;66.35;40.72;;;16.70;68.00;;;;;;6280286;22;20078;-71
2022/10/31 22:16:48;;;;;;;37.08;24.00;;;16.80;68.10;;;;;;6307174;22;19999;-68
2022/10/31 22:19:17;;;;;;;50.35;29.48;;;16.80;68.10;;;;;;6280346;22;20219;-70
2022/10/31 22:21:48;;;;;;;28.90;18.30;;;16.80;68.00;;;;;;6307553;22;19991;-68
2022/10/31 22:24:15;;;;;;;22.27;13.80;;;16.80;67.90;;;;;;6307215;22;19992;-68
2022/10/31 22:26:44;;;;;;;22.55;14.95;;;16.80;67.80;;;;;;6280021;22;20004;-70
2022/10/31 22:29:18;;;;;;;34.13;20.08;;;16.80;67.70;;;;;;6306832;22;20074;-71
2022/10/31 22:31:45;;;;;;;;;;;16.80;67.60;;;;;;6280480;22;20025;-70
2022/10/31 22:34:12;;;;;;;33.13;21.48;;;16.80;67.80;;;;;;6306520;22;19895;-67
2022/10/31 22:36:41;;;;;;;20.20;13.88;;;16.80;67.30;;;;;;6279609;22;20053;-68
2022/10/31 22:39:15;;;;;;;26.65;17.40;;;16.80;67.30;;;;;;6280313;22;20004;-69
2022/10/31 22:41:40;;;;;;;19.30;10.70;;;16.80;67.30;;;;;;6280132;22;20007;-68
2022/10/31 22:44:06;;;;;;;13.65;10.45;;;16.70;67.20;;;;;;6305723;22;20566;-71
2022/10/31 22:46:37;;;;;;;17.45;11.68;;;16.70;67.30;;;;;;6280052;22;19995;-69
2022/10/31 22:49:09;;;;;;;16.23;10.60;;;16.70;67.30;;;;;;6307322;22;19996;-68
2022/10/31 22:51:41;;;;;;;21.08;13.30;;;16.70;67.30;;;;;;6280346;22;20041;-71
2022/10/31 22:54:17;;;;;;;16.33;10.98;;;16.70;67.40;;;;;;6279071;22;19998;-76
2022/10/31 22:56:43;;;;;;;14.55;9.85;;;16.70;67.50;;;;;;6279668;22;20052;-80
2022/10/31 22:59:14;;;;;;;12.02;9.10;;;16.70;67.20;;;;;;6307623;22;20082;-78
2022/10/31 23:01:40;;;;;;;13.45;9.15;;;16.60;67.00;;;;;;6280130;22;20006;-79
2022/10/31 23:04:07;;;;;;;18.27;10.32;;;16.60;67.00;;;;;;6280076;22;19995;-79
2022/10/31 23:06:33;;;;;;;17.58;9.80;;;16.60;67.00;;;;;;6280147;22;20315;-79
2022/10/31 23:09:01;;;;;;;13.65;8.98;;;16.50;67.10;;;;;;6307497;22;19993;-79
2022/10/31 23:11:36;;;;;;;14.00;8.73;;;16.50;67.20;;;;;;6307427;22;19999;-79
2022/10/31 23:14:07;;;;;;;17.80;10.20;;;16.40;67.20;;;;;;6279851;22;19995;-79
2022/10/31 23:16:43;;;;;;;14.07;9.95;;;16.40;67.40;;;;;;6279975;22;20407;-77
2022/10/31 23:19:16;;;;;;;17.27;9.48;;;16.30;67.40;;;;;;6307111;22;20006;-80
2022/10/31 23:21:54;;;;;;;13.90;9.80;;;16.20;67.60;;;;;;6307172;22;20002;-81
2022/10/31 23:24:34;;;;;;;16.48;9.73;;;16.20;67.80;;;;;;6281839;22;20070;-80
2022/10/31 23:27:09;;;;;;;15.27;10.07;;;16.20;67.90;;;;;;6281435;22;20053;-77
2022/10/31 23:29:39;;;;;;;16.23;10.35;;;16.20;68.00;;;;;;6281827;22;20034;-78
2022/10/31 23:32:28;;;;;;;14.98;11.27;;;16.10;68.00;;;;;;6281532;22;20002;-80
2022/10/31 23:35:03;;;;;;;15.95;10.93;;;16.10;68.10;;;;;;6280254;22;19999;-80
2022/10/31 23:37:37;;;;;;;15.48;10.23;;;16.10;68.20;;;;;;6281656;22;19995;-80
2022/10/31 23:40:05;;;;;;;17.25;10.70;;;16.00;68.20;;;;;;6281732;22;20099;-78
2022/10/31 23:42:31;;;;;;;18.27;11.23;;;16.00;68.30;;;;;;6309260;22;20056;-78
2022/10/31 23:44:57;;;;;;;13.27;9.45;;;16.00;68.40;;;;;;6281119;22;20459;-78
2022/10/31 23:47:28;;;;;;;16.58;10.05;;;16.00;68.50;;;;;;6281649;22;20006;-79
2022/10/31 23:49:54;;;;;;;18.13;10.93;;;16.00;68.50;;;;;;6281910;22;20019;-78
2022/10/31 23:52:22;;;;;;;14.38;11.07;;;16.00;68.50;;;;;;6281759;22;20400;-78
2022/10/31 23:54:48;;;;;;;15.23;10.57;;;16.00;68.40;;;;;;6308526;22;20013;-78
2022/10/31 23:57:15;;;;;;;17.75;10.35;;;16.00;68.40;;;;;;6281738;22;20003;-78
2022/10/31 23:59:41;;;;;;;17.55;11.20;;;16.00;68.40;;;;;;6281710;22;19995;-79
